createdAt,value
2018-05-23T00:02:01.664Z,5.87
2018-05-23T00:04:29.862Z,5.90
2018-05-23T00:06:58.075Z,6.30
2018-05-23T00:09:26.270Z,5.80
2018-05-23T00:11:54.475Z,5.80
2018-05-23T00:14:22.673Z,5.53
2018-05-23T00:16:50.879Z,6.07
2018-05-23T00:19:19.074Z,6.00
2018-05-23T00:21:47.282Z,6.70
2018-05-23T00:24:15.479Z,5.70
2018-05-23T00:26:43.685Z,5.93
2018-05-23T00:29:11.121Z,6.10
2018-05-23T00:31:38.566Z,5.67
2018-05-23T00:34:05.998Z,6.10
2018-05-23T00:36:33.444Z,6.03
2018-05-23T00:39:00.875Z,6.00
2018-05-23T00:41:28.314Z,6.60
2018-05-23T00:43:55.745Z,5.50
2018-05-23T00:46:23.953Z,6.33
2018-05-23T00:48:52.150Z,6.37
2018-05-23T00:51:20.359Z,7.10
2018-05-23T00:53:48.565Z,6.23
2018-05-23T00:56:16.763Z,6.00
2018-05-23T00:58:44.969Z,6.30
2018-05-23T01:01:13.170Z,6.70
2018-05-23T01:03:40.602Z,6.63
2018-05-23T01:06:08.043Z,6.20
2018-05-23T01:08:35.477Z,6.43
2018-05-23T01:11:02.921Z,6.83
2018-05-23T01:13:30.349Z,6.10
2018-05-23T01:15:57.793Z,6.07
2018-05-23T01:18:25.226Z,7.10
2018-05-23T01:20:53.442Z,6.17
2018-05-23T01:23:21.637Z,7.47
2018-05-23T01:25:49.845Z,7.27
2018-05-23T01:28:17.277Z,7.37
2018-05-23T01:30:44.762Z,7.20
2018-05-23T01:33:12.962Z,6.93
2018-05-23T01:35:40.395Z,7.57
2018-05-23T01:38:07.848Z,7.80
2018-05-23T01:40:35.267Z,8.30
2018-05-23T01:43:02.709Z,7.77
2018-05-23T01:45:30.146Z,7.73
2018-05-23T01:47:57.586Z,7.80
2018-05-23T01:50:25.010Z,7.00
2018-05-23T01:52:53.217Z,8.40
2018-05-23T01:55:21.415Z,8.30
2018-05-23T01:57:49.613Z,7.17
2018-05-23T02:00:17.047Z,6.97
2018-05-23T02:02:44.499Z,7.60
2018-05-23T02:05:11.930Z,8.73
2018-05-23T02:07:39.369Z,8.30
2018-05-23T02:10:07.574Z,8.40
2018-05-23T02:12:35.794Z,9.97
2018-05-23T02:15:03.225Z,8.47
2018-05-23T02:17:30.671Z,9.17
2018-05-23T02:19:58.110Z,9.57
2018-05-23T02:22:25.559Z,9.83
2018-05-23T02:24:52.990Z,8.70
2018-05-23T02:27:21.199Z,9.10
2018-05-23T02:29:49.411Z,9.27
2018-05-23T02:32:17.601Z,9.27
2018-05-23T02:34:45.815Z,9.30
2018-05-23T02:37:14.013Z,8.90
2018-05-23T02:39:42.208Z,8.80
2018-05-23T02:42:10.411Z,8.83
2018-05-23T02:44:38.619Z,9.20
2018-05-23T02:47:06.871Z,9.27
2018-05-23T02:49:35.030Z,9.03
2018-05-23T02:52:03.242Z,9.80
2018-05-23T02:54:30.678Z,9.40
2018-05-23T02:56:58.119Z,9.00
2018-05-23T02:59:25.553Z,8.90
2018-05-23T03:01:53.001Z,9.30
2018-05-23T03:04:20.434Z,8.23
2018-05-23T03:06:47.869Z,9.13
2018-05-23T03:09:15.301Z,10.07
2018-05-23T03:11:42.742Z,9.90
2018-05-23T03:14:10.177Z,9.30
2018-05-23T03:16:38.381Z,9.23
2018-05-23T03:19:06.587Z,10.13
2018-05-23T03:21:34.802Z,8.90
2018-05-23T03:24:02.233Z,9.67
2018-05-23T03:26:29.678Z,9.10
2018-05-23T03:28:57.114Z,8.97
2018-05-23T03:31:24.553Z,8.50
2018-05-23T03:33:51.994Z,8.67
2018-05-23T03:36:20.189Z,9.20
2018-05-23T03:38:47.629Z,8.90
2018-05-23T03:41:15.062Z,8.00
2018-05-23T03:43:43.264Z,8.57
2018-05-23T03:46:11.466Z,9.20
2018-05-23T03:48:39.674Z,9.70
2018-05-23T03:51:07.873Z,9.13
2018-05-23T03:53:36.091Z,8.30
2018-05-23T03:56:04.282Z,8.60
2018-05-23T03:58:32.491Z,7.63
2018-05-23T04:01:11.791Z,8.90
2018-05-23T04:03:51.110Z,9.93
2018-05-23T04:06:31.241Z,8.63
2018-05-23T04:08:58.685Z,8.40
2018-05-23T04:11:26.120Z,8.17
2018-05-23T04:13:53.557Z,8.07
2018-05-23T04:16:20.994Z,7.77
2018-05-23T04:18:48.435Z,8.00
2018-05-23T04:21:15.865Z,8.50
2018-05-23T04:23:43.310Z,8.57
2018-05-23T04:26:10.738Z,8.40
2018-05-23T04:28:38.950Z,8.60
2018-05-23T04:31:07.150Z,9.13
2018-05-23T04:33:35.355Z,7.80
2018-05-23T04:36:02.789Z,8.10
2018-05-23T04:38:30.234Z,7.63
2018-05-23T04:40:57.661Z,7.80
2018-05-23T04:43:25.097Z,7.50
2018-05-23T04:45:52.524Z,7.67
2018-05-23T04:48:19.975Z,8.30
2018-05-23T04:50:47.414Z,8.57
2018-05-23T04:53:14.853Z,7.57
2018-05-23T04:55:42.282Z,7.30
2018-05-23T04:58:09.721Z,8.60
2018-05-23T05:00:37.158Z,7.83
2018-05-23T05:03:04.610Z,7.87
2018-05-23T05:05:32.048Z,7.63
2018-05-23T05:07:59.472Z,8.43
2018-05-23T05:10:26.927Z,8.90
2018-05-23T05:12:55.121Z,8.43
2018-05-23T05:15:23.333Z,8.13
2018-05-23T05:17:51.536Z,8.53
2018-05-23T05:20:19.745Z,9.13
2018-05-23T05:22:47.933Z,8.70
2018-05-23T05:25:16.141Z,8.37
2018-05-23T05:27:43.594Z,9.57
2018-05-23T05:30:11.034Z,8.33
2018-05-23T05:32:38.473Z,8.20
2018-05-23T05:35:06.675Z,8.13
2018-05-23T05:37:34.873Z,9.57
2018-05-23T05:40:03.074Z,8.67
2018-05-23T05:42:31.278Z,8.53
2018-05-23T05:44:58.716Z,8.30
2018-05-23T05:47:26.145Z,7.93
2018-05-23T05:49:53.594Z,8.23
2018-05-23T05:52:21.034Z,9.40
2018-05-23T05:54:48.478Z,7.90
2018-05-23T05:57:16.673Z,9.00
2018-05-23T05:59:44.890Z,8.80
2018-05-23T06:02:12.319Z,9.57
2018-05-23T06:04:39.767Z,9.13
2018-05-23T06:07:07.200Z,9.47
2018-05-23T06:09:34.705Z,9.80
2018-05-23T07:10:56.854Z,9.40
2018-05-23T07:13:25.062Z,10.40
2018-05-23T07:15:52.513Z,10.50
2018-05-23T07:18:19.943Z,10.80
2018-05-23T07:20:47.381Z,10.57
2018-05-23T07:23:14.825Z,10.87
2018-05-23T07:25:42.273Z,10.20
2018-05-23T07:28:09.728Z,10.20
2018-05-23T07:30:37.204Z,10.52
2018-05-23T07:33:04.639Z,10.85
2018-05-23T07:35:32.856Z,10.27
2018-05-23T07:38:00.292Z,10.68
2018-05-23T07:40:27.742Z,11.65
2018-05-23T07:42:55.185Z,10.98
2018-05-23T07:45:23.398Z,11.20
2018-05-23T07:47:50.842Z,10.70
2018-05-23T07:50:18.299Z,11.30
2018-05-23T07:52:45.742Z,11.45
2018-05-23T07:55:13.190Z,10.93
2018-05-23T07:57:40.634Z,10.80
2018-05-23T08:00:08.081Z,10.77
2018-05-23T08:02:35.526Z,12.05
2018-05-23T08:05:02.987Z,11.43
2018-05-23T08:07:30.433Z,11.95
2018-05-23T08:09:57.889Z,11.38
2018-05-23T08:12:26.110Z,11.50
2018-05-23T08:14:53.565Z,10.98
2018-05-23T08:17:21.014Z,10.73
2018-05-23T08:19:48.457Z,11.68
2018-05-23T08:22:16.676Z,10.50
2018-05-23T08:24:44.139Z,11.20
2018-05-23T08:27:12.363Z,11.12
2018-05-23T08:29:39.853Z,10.93
2018-05-23T08:32:07.285Z,14.48
2018-05-23T08:34:34.738Z,10.88
2018-05-23T08:37:02.183Z,10.60
2018-05-23T08:39:29.637Z,10.13
2018-05-23T08:41:57.079Z,10.70
2018-05-23T08:44:24.509Z,9.80
2018-05-23T08:46:52.726Z,8.80
2018-05-23T08:49:20.161Z,8.52
2018-05-23T08:51:47.602Z,12.35
2018-05-23T08:54:15.039Z,9.30
2018-05-23T08:56:42.481Z,8.37
2018-05-23T08:59:09.938Z,9.30
2018-05-23T09:01:37.370Z,8.73
2018-05-23T09:04:04.805Z,10.95
2018-05-23T09:06:32.269Z,10.05
2018-05-23T09:08:59.719Z,10.88
2018-05-23T09:11:27.169Z,10.68
2018-05-23T09:13:54.612Z,9.75
2018-05-23T09:16:22.829Z,10.02
2018-05-23T09:18:50.276Z,9.20
2018-05-23T09:21:17.730Z,10.82
2018-05-23T09:23:45.165Z,9.43
2018-05-23T09:26:12.618Z,10.27
2018-05-23T09:28:40.074Z,8.50
2018-05-23T09:31:07.518Z,9.30
2018-05-23T09:33:34.957Z,10.90
2018-05-23T09:36:02.393Z,10.60
2018-05-23T09:38:29.839Z,10.33
2018-05-23T09:40:57.283Z,9.73
2018-05-23T09:43:24.730Z,8.75
2018-05-23T09:45:52.185Z,11.32
2018-05-23T09:48:19.643Z,13.20
2018-05-23T09:50:47.085Z,10.70
2018-05-23T09:53:14.534Z,8.90
2018-05-23T09:55:41.982Z,11.10
2018-05-23T09:58:09.427Z,11.32
2018-05-23T10:00:36.869Z,9.05
2018-05-23T10:03:04.302Z,9.63
2018-05-23T10:05:31.750Z,8.57
2018-05-23T10:07:59.955Z,7.25
2018-05-23T10:10:28.198Z,7.80
2018-05-23T10:12:55.618Z,9.43
2018-05-23T10:15:23.064Z,6.55
2018-05-23T10:17:50.502Z,6.40
2018-05-23T10:20:18.715Z,6.27
2018-05-23T10:22:46.931Z,8.25
2018-05-23T10:25:14.373Z,8.55
2018-05-23T10:27:41.813Z,8.45
2018-05-23T10:30:09.264Z,7.25
2018-05-23T10:32:36.697Z,7.85
2018-05-23T10:35:04.142Z,7.65
2018-05-23T10:37:31.569Z,6.87
2018-05-23T10:39:59.023Z,8.30
2018-05-23T10:42:26.458Z,6.83
2018-05-23T10:44:54.687Z,6.37
2018-05-23T10:47:22.125Z,6.53
2018-05-23T10:49:49.557Z,6.50
2018-05-23T10:52:17.001Z,7.70
2018-05-23T10:54:45.213Z,6.70
2018-05-23T10:57:13.508Z,7.18
2018-05-23T10:59:40.865Z,7.80
2018-05-23T11:02:08.301Z,6.30
2018-05-23T11:04:35.737Z,6.68
2018-05-23T11:07:03.173Z,5.72
2018-05-23T11:09:30.601Z,6.12
2018-05-23T11:11:58.815Z,6.20
2018-05-23T11:14:27.014Z,7.00
2018-05-23T11:16:55.230Z,7.43
2018-05-23T11:19:22.657Z,7.77
2018-05-23T11:21:50.100Z,8.00
2018-05-23T11:24:17.534Z,7.03
2018-05-23T11:26:44.965Z,8.23
2018-05-23T12:33:01.989Z,7.00
2018-05-23T12:35:29.431Z,6.90
2018-05-23T12:37:57.647Z,6.03
2018-05-23T12:40:25.860Z,6.00
2018-05-23T12:42:53.307Z,5.50
2018-05-23T12:45:20.742Z,6.00
2018-05-23T12:47:48.191Z,5.53
2018-05-23T12:50:16.393Z,5.70
2018-05-23T15:42:01.218Z,4.03
2018-05-23T15:44:29.418Z,4.68
2018-05-23T15:46:57.643Z,4.50
2018-05-23T15:49:25.082Z,3.95
2018-05-23T15:51:52.530Z,4.00
2018-05-23T15:54:19.965Z,4.32
2018-05-23T15:56:48.187Z,3.97
2018-05-23T15:59:16.376Z,4.60
2018-05-23T16:01:44.591Z,4.60
2018-05-23T16:04:12.026Z,4.57
2018-05-23T16:06:39.482Z,4.55
2018-05-23T16:09:06.915Z,3.90
2018-05-23T16:11:35.140Z,4.30
2018-05-23T16:14:02.573Z,4.50
2018-05-23T16:16:30.012Z,4.40
2018-05-23T16:18:57.449Z,4.20
2018-05-23T16:21:25.656Z,3.97
2018-05-23T16:23:53.870Z,4.12
2018-05-23T16:26:21.326Z,4.20
2018-05-23T16:28:49.528Z,3.60
2018-05-23T16:31:17.730Z,4.17
2018-05-23T16:33:45.956Z,3.97
2018-05-23T16:36:13.377Z,3.60
2018-05-23T16:38:40.826Z,3.85
2018-05-23T16:41:08.256Z,4.00
2018-05-23T16:43:35.693Z,4.00
2018-05-23T16:46:03.132Z,4.20
2018-05-23T16:50:37.601Z,4.30
2018-05-23T16:53:05.048Z,3.78
2018-05-23T16:55:32.473Z,4.18
2018-05-23T16:58:00.682Z,4.37
2018-05-23T17:00:28.883Z,3.80
2018-05-23T17:02:57.089Z,3.85
2018-05-23T17:05:25.302Z,4.00
2018-05-23T17:07:52.762Z,4.32
2018-05-23T17:10:20.965Z,4.50
2018-05-23T17:12:49.179Z,3.73
2018-05-23T17:15:17.374Z,3.80
2018-05-23T17:17:45.594Z,3.67
2018-05-23T17:20:13.033Z,4.20
2018-05-23T17:22:41.251Z,4.10
2018-05-23T17:25:09.453Z,4.25
2018-05-23T17:27:37.656Z,4.07
2018-05-23T17:30:05.852Z,4.37
2018-05-23T17:32:34.072Z,4.00
2018-05-23T17:35:01.510Z,4.00
2018-05-23T17:37:28.958Z,3.90
2018-05-23T17:39:56.393Z,4.00
2018-05-23T17:42:24.625Z,4.07
2018-05-23T17:44:52.064Z,4.07
2018-05-23T17:47:19.515Z,4.35
2018-05-23T17:49:46.958Z,4.00
2018-05-23T17:52:15.182Z,3.95
2018-05-23T17:54:42.624Z,4.25
2018-05-23T17:57:10.057Z,4.50
2018-05-23T17:59:37.514Z,6.43
2018-05-23T18:02:05.710Z,6.28
2018-05-23T18:04:33.918Z,5.85
2018-05-23T18:07:01.350Z,5.22
2018-05-23T18:09:28.799Z,5.20
2018-05-23T18:11:56.227Z,4.90
2018-05-23T18:14:23.662Z,5.90
2018-05-23T18:16:51.192Z,6.13
2018-05-23T18:19:18.537Z,7.40
2018-05-23T18:21:45.982Z,7.20
2018-05-23T18:24:14.187Z,6.20
2018-05-23T18:26:41.628Z,6.07
2018-05-23T18:29:09.067Z,5.60
2018-05-23T18:31:36.499Z,5.53
2018-05-23T18:34:03.939Z,5.10
2018-05-23T18:36:31.366Z,5.00
2018-05-23T18:38:58.814Z,4.20
2018-05-23T18:41:26.253Z,4.30
2018-05-23T18:43:54.466Z,4.85
2018-05-23T18:46:21.905Z,4.47
2018-05-23T18:48:50.113Z,4.87
2018-05-23T18:51:17.555Z,5.03
2018-05-23T18:53:44.990Z,5.00
2018-05-23T18:56:12.417Z,5.30
2018-05-23T18:58:39.862Z,5.70
2018-05-23T19:01:08.070Z,6.10
2018-05-23T19:03:35.493Z,5.85
2018-05-23T19:06:02.929Z,6.30
2018-05-23T19:08:31.129Z,6.77
2018-05-23T19:10:59.333Z,6.80
2018-05-23T19:13:27.550Z,6.60
2018-05-23T19:15:54.997Z,6.70
2018-05-23T19:18:22.455Z,6.93
2018-05-23T19:20:49.889Z,9.32
2018-05-23T19:23:18.106Z,7.20
2018-05-23T19:25:45.545Z,7.00
2018-05-23T19:28:12.987Z,7.37
2018-05-23T19:30:40.423Z,7.60
2018-05-23T19:33:08.649Z,7.35
2018-05-23T19:35:36.095Z,7.80
2018-05-23T19:38:03.542Z,7.90
2018-05-23T19:40:30.977Z,7.80
2018-05-23T19:42:59.202Z,7.82
2018-05-23T19:45:26.642Z,7.15
2018-05-23T19:47:54.082Z,7.95
2018-05-23T19:50:21.522Z,7.45
2018-05-23T19:52:49.841Z,8.63
2018-05-23T19:55:17.194Z,8.10
2018-05-23T19:57:44.639Z,7.90
2018-05-23T20:00:12.078Z,6.80
2018-05-23T20:02:40.293Z,7.87
2018-05-23T20:05:07.745Z,8.05
2018-05-23T20:07:35.186Z,7.90
2018-05-23T20:10:02.625Z,8.07
2018-05-23T20:12:30.839Z,8.63
2018-05-23T20:14:59.045Z,8.10
2018-05-23T20:17:27.233Z,8.95
2018-05-23T20:19:55.441Z,8.27
2018-05-23T20:22:23.650Z,9.23
2018-05-23T20:24:51.875Z,8.20
2018-05-23T20:27:19.307Z,8.35
2018-05-23T20:29:46.755Z,8.00
2018-05-23T20:32:14.189Z,8.35
2018-05-23T20:34:41.973Z,8.57
2018-05-23T20:37:09.415Z,8.13
2018-05-23T20:39:36.853Z,8.00
2018-05-23T20:42:04.291Z,8.13
2018-05-23T20:44:31.725Z,9.43
2018-05-23T20:46:59.159Z,9.63
2018-05-23T20:49:26.605Z,10.33
2018-05-23T20:51:54.046Z,10.00
2018-05-23T20:54:21.489Z,10.83
2018-05-23T20:56:49.696Z,9.20
2018-05-23T20:59:17.908Z,7.20
2018-05-23T21:01:45.338Z,8.17
2018-05-23T21:04:12.780Z,8.90
2018-05-23T21:06:40.227Z,7.77
2018-05-23T21:09:07.661Z,8.50
2018-05-23T21:11:35.138Z,6.67
2018-05-23T21:14:03.307Z,7.07
2018-05-23T21:16:31.505Z,7.30
2018-05-23T21:18:59.710Z,7.50
2018-05-23T21:21:27.901Z,8.97
2018-05-23T21:23:56.100Z,7.60
2018-05-23T21:26:24.311Z,7.70
2018-05-23T21:28:52.526Z,8.60
2018-05-23T21:31:19.971Z,8.35
2018-05-23T21:33:47.410Z,6.37
2018-05-23T21:36:14.837Z,5.43
2018-05-23T21:38:42.279Z,7.20
2018-05-23T21:41:09.715Z,6.75
2018-05-23T21:43:37.927Z,6.30
2018-05-23T21:46:05.367Z,6.67
2018-05-23T21:48:32.801Z,7.43
2018-05-23T21:51:00.225Z,7.50
2018-05-23T21:53:27.679Z,7.97
2018-05-23T21:55:55.135Z,8.27
2018-05-23T21:58:22.569Z,8.40
2018-05-23T22:00:50.015Z,8.52
2018-05-23T22:03:17.450Z,9.48
2018-05-23T22:05:44.893Z,10.68
2018-05-23T22:08:12.335Z,9.70
2018-05-23T22:10:40.543Z,9.50
2018-05-23T22:13:07.984Z,9.60
2018-05-23T22:15:35.425Z,9.70
2018-05-23T22:18:02.862Z,9.23
2018-05-23T22:20:30.305Z,9.33
2018-05-23T22:22:57.737Z,8.95
2018-05-23T22:25:25.945Z,10.65
2018-05-23T22:27:53.385Z,9.30
2018-05-23T22:30:20.917Z,10.20
2018-05-23T22:32:48.298Z,10.90
2018-05-23T22:35:15.737Z,8.55
2018-05-23T22:37:43.178Z,9.20
2018-05-23T22:40:10.618Z,8.60
2018-05-23T22:42:38.820Z,9.20
2018-05-23T22:45:07.036Z,8.60
2018-05-23T22:47:35.250Z,8.63
2018-05-23T22:50:02.690Z,8.38
2018-05-23T22:52:30.125Z,10.60
2018-05-23T22:54:57.580Z,10.05
2018-05-23T22:57:25.791Z,9.70
2018-05-23T22:59:53.236Z,9.63
2018-05-23T23:02:20.684Z,10.95
2018-05-23T23:04:48.117Z,10.30
2018-05-23T23:07:16.329Z,11.87
2018-05-23T23:09:43.770Z,11.93
2018-05-23T23:12:11.218Z,10.50
2018-05-23T23:14:38.669Z,11.02
2018-05-23T23:17:06.121Z,9.50
2018-05-23T23:19:33.579Z,10.52
2018-05-23T23:22:01.030Z,11.07
2018-05-23T23:24:28.470Z,10.55
2018-05-23T23:26:55.922Z,11.35
2018-05-23T23:29:23.359Z,10.50
2018-05-23T23:31:51.569Z,11.38
2018-05-23T23:34:19.022Z,11.73
2018-05-23T23:36:46.470Z,10.03
2018-05-23T23:39:13.905Z,11.35
2018-05-23T23:41:42.131Z,10.73
2018-05-23T23:44:09.566Z,10.70
2018-05-23T23:46:37.005Z,11.20
2018-05-23T23:49:04.441Z,12.10
2018-05-23T23:51:31.890Z,12.63
2018-05-23T23:53:59.343Z,10.77
2018-05-23T23:56:26.798Z,14.05
2018-05-23T23:58:54.233Z,13.52
